sensor_id;sensor_type;location;lat;lon;timestamp;P1;durP1;ratioP1;P2;durP2;ratioP2
41921;SDS011;27609;51.002;5.354;2024-01-06T00:01:46;21.88;;;10.05;;
41921;SDS011;27609;51.002;5.354;2024-01-06T00:04:11;22.33;;;10.65;;
41921;SDS011;27609;51.002;5.354;2024-01-06T00:06:37;20.15;;;9.77;;
41921;SDS011;27609;51.002;5.354;2024-01-06T00:09:03;17.80;;;9.80;;
41921;SDS011;27609;51.002;5.354;2024-01-06T00:11:28;17.92;;;8.43;;
41921;SDS011;27609;51.002;5.354;2024-01-06T00:13:54;23.00;;;9.20;;
41921;SDS011;27609;51.002;5.354;2024-01-06T00:16:20;19.02;;;8.18;;
41921;SDS011;27609;51.002;5.354;2024-01-06T00:18:46;18.38;;;7.43;;
41921;SDS011;27609;51.002;5.354;2024-01-06T00:21:12;12.77;;;7.18;;
41921;SDS011;27609;51.002;5.354;2024-01-06T00:23:39;15.57;;;6.72;;
41921;SDS011;27609;51.002;5.354;2024-01-06T00:26:06;11.80;;;6.50;;
41921;SDS011;27609;51.002;5.354;2024-01-06T00:28:33;21.95;;;5.80;;
41921;SDS011;27609;51.002;5.354;2024-01-06T00:30:59;12.77;;;5.38;;
41921;SDS011;27609;51.002;5.354;2024-01-06T00:33:24;11.38;;;5.50;;
41921;SDS011;27609;51.002;5.354;2024-01-06T00:35:50;9.68;;;4.72;;
41921;SDS011;27609;51.002;5.354;2024-01-06T00:38:16;9.48;;;5.25;;
41921;SDS011;27609;51.002;5.354;2024-01-06T00:40:42;18.23;;;5.40;;
41921;SDS011;27609;51.002;5.354;2024-01-06T00:43:07;15.23;;;5.50;;
41921;SDS011;27609;51.002;5.354;2024-01-06T00:45:33;18.90;;;5.78;;
41921;SDS011;27609;51.002;5.354;2024-01-06T00:47:59;19.42;;;6.35;;
41921;SDS011;27609;51.002;5.354;2024-01-06T00:50:24;13.07;;;7.22;;
41921;SDS011;27609;51.002;5.354;2024-01-06T00:52:50;19.98;;;6.47;;
41921;SDS011;27609;51.002;5.354;2024-01-06T00:55:17;12.25;;;6.28;;
41921;SDS011;27609;51.002;5.354;2024-01-06T00:57:44;15.93;;;7.47;;
41921;SDS011;27609;51.002;5.354;2024-01-06T01:00:10;12.90;;;6.93;;
41921;SDS011;27609;51.002;5.354;2024-01-06T01:02:36;15.45;;;6.97;;
41921;SDS011;27609;51.002;5.354;2024-01-06T01:05:02;23.00;;;7.82;;
41921;SDS011;27609;51.002;5.354;2024-01-06T01:07:27;19.85;;;7.50;;
41921;SDS011;27609;51.002;5.354;2024-01-06T01:09:53;23.05;;;8.27;;
41921;SDS011;27609;51.002;5.354;2024-01-06T01:12:19;19.38;;;7.25;;
41921;SDS011;27609;51.002;5.354;2024-01-06T01:14:44;21.63;;;7.10;;
41921;SDS011;27609;51.002;5.354;2024-01-06T01:17:10;22.88;;;7.05;;
41921;SDS011;27609;51.002;5.354;2024-01-06T01:19:36;20.10;;;7.07;;
41921;SDS011;27609;51.002;5.354;2024-01-06T01:22:01;20.67;;;6.80;;
41921;SDS011;27609;51.002;5.354;2024-01-06T01:24:28;17.90;;;7.53;;
41921;SDS011;27609;51.002;5.354;2024-01-06T01:26:53;16.30;;;5.80;;
41921;SDS011;27609;51.002;5.354;2024-01-06T01:29:19;11.52;;;6.70;;
41921;SDS011;27609;51.002;5.354;2024-01-06T01:31:45;11.52;;;5.78;;
41921;SDS011;27609;51.002;5.354;2024-01-06T01:34:12;16.70;;;6.75;;
41921;SDS011;27609;51.002;5.354;2024-01-06T01:36:38;12.88;;;6.78;;
41921;SDS011;27609;51.002;5.354;2024-01-06T01:39:05;15.45;;;7.15;;
41921;SDS011;27609;51.002;5.354;2024-01-06T01:41:30;15.68;;;7.03;;
41921;SDS011;27609;51.002;5.354;2024-01-06T01:43:56;12.70;;;6.68;;
41921;SDS011;27609;51.002;5.354;2024-01-06T01:46:28;17.08;;;6.65;;
41921;SDS011;27609;51.002;5.354;2024-01-06T01:48:54;15.23;;;7.18;;
41921;SDS011;27609;51.002;5.354;2024-01-06T01:51:20;19.73;;;7.72;;
41921;SDS011;27609;51.002;5.354;2024-01-06T01:53:47;13.80;;;7.20;;
41921;SDS011;27609;51.002;5.354;2024-01-06T01:56:13;12.77;;;6.80;;
41921;SDS011;27609;51.002;5.354;2024-01-06T01:58:39;13.68;;;6.65;;
41921;SDS011;27609;51.002;5.354;2024-01-06T02:01:06;13.73;;;7.75;;
41921;SDS011;27609;51.002;5.354;2024-01-06T02:03:32;10.52;;;6.18;;
41921;SDS011;27609;51.002;5.354;2024-01-06T02:05:58;15.20;;;6.97;;
41921;SDS011;27609;51.002;5.354;2024-01-06T02:08:24;11.55;;;5.05;;
41921;SDS011;27609;51.002;5.354;2024-01-06T02:10:50;12.57;;;5.82;;
41921;SDS011;27609;51.002;5.354;2024-01-06T02:13:15;7.93;;;4.90;;
41921;SDS011;27609;51.002;5.354;2024-01-06T02:15:41;13.07;;;5.90;;
41921;SDS011;27609;51.002;5.354;2024-01-06T02:18:07;7.40;;;5.55;;
41921;SDS011;27609;51.002;5.354;2024-01-06T02:20:33;9.95;;;4.85;;
41921;SDS011;27609;51.002;5.354;2024-01-06T02:22:59;10.30;;;5.60;;
41921;SDS011;27609;51.002;5.354;2024-01-06T02:25:25;8.02;;;5.68;;
41921;SDS011;27609;51.002;5.354;2024-01-06T02:27:51;9.30;;;6.07;;
41921;SDS011;27609;51.002;5.354;2024-01-06T02:30:17;11.50;;;6.22;;
41921;SDS011;27609;51.002;5.354;2024-01-06T02:32:43;13.25;;;6.85;;
41921;SDS011;27609;51.002;5.354;2024-01-06T02:35:08;22.85;;;7.93;;
41921;SDS011;27609;51.002;5.354;2024-01-06T02:37:34;15.70;;;7.82;;
41921;SDS011;27609;51.002;5.354;2024-01-06T02:40:00;14.95;;;8.27;;
41921;SDS011;27609;51.002;5.354;2024-01-06T02:42:25;21.05;;;8.52;;
41921;SDS011;27609;51.002;5.354;2024-01-06T02:44:51;17.45;;;8.65;;
41921;SDS011;27609;51.002;5.354;2024-01-06T02:47:17;15.65;;;8.57;;
41921;SDS011;27609;51.002;5.354;2024-01-06T02:49:43;20.65;;;8.48;;
41921;SDS011;27609;51.002;5.354;2024-01-06T02:52:08;15.30;;;8.15;;
41921;SDS011;27609;51.002;5.354;2024-01-06T02:54:34;21.42;;;9.07;;
41921;SDS011;27609;51.002;5.354;2024-01-06T02:57:00;20.23;;;8.35;;
41921;SDS011;27609;51.002;5.354;2024-01-06T02:59:25;19.70;;;9.23;;
41921;SDS011;27609;51.002;5.354;2024-01-06T03:01:51;22.33;;;9.57;;
41921;SDS011;27609;51.002;5.354;2024-01-06T03:04:17;22.77;;;9.52;;
41921;SDS011;27609;51.002;5.354;2024-01-06T03:06:42;23.10;;;9.88;;
41921;SDS011;27609;51.002;5.354;2024-01-06T03:09:08;24.83;;;10.73;;
41921;SDS011;27609;51.002;5.354;2024-01-06T03:11:34;23.13;;;11.00;;
41921;SDS011;27609;51.002;5.354;2024-01-06T03:14:00;28.95;;;11.25;;
41921;SDS011;27609;51.002;5.354;2024-01-06T03:16:25;26.80;;;12.00;;
41921;SDS011;27609;51.002;5.354;2024-01-06T03:18:51;23.88;;;10.38;;
41921;SDS011;27609;51.002;5.354;2024-01-06T03:21:17;26.02;;;10.98;;
41921;SDS011;27609;51.002;5.354;2024-01-06T03:23:47;26.75;;;11.63;;
41921;SDS011;27609;51.002;5.354;2024-01-06T03:26:13;29.73;;;12.32;;
41921;SDS011;27609;51.002;5.354;2024-01-06T03:28:39;26.48;;;12.73;;
41921;SDS011;27609;51.002;5.354;2024-01-06T03:31:05;25.88;;;12.52;;
41921;SDS011;27609;51.002;5.354;2024-01-06T03:33:30;26.48;;;12.13;;
41921;SDS011;27609;51.002;5.354;2024-01-06T03:35:56;24.27;;;11.63;;
41921;SDS011;27609;51.002;5.354;2024-01-06T03:38:21;33.35;;;12.90;;
41921;SDS011;27609;51.002;5.354;2024-01-06T03:40:47;24.70;;;11.55;;
41921;SDS011;27609;51.002;5.354;2024-01-06T03:43:13;30.13;;;11.85;;
41921;SDS011;27609;51.002;5.354;2024-01-06T03:45:39;25.48;;;11.18;;
41921;SDS011;27609;51.002;5.354;2024-01-06T03:48:04;25.55;;;10.88;;
41921;SDS011;27609;51.002;5.354;2024-01-06T03:50:31;27.20;;;12.20;;
41921;SDS011;27609;51.002;5.354;2024-01-06T03:52:56;27.13;;;11.90;;
41921;SDS011;27609;51.002;5.354;2024-01-06T03:55:22;27.77;;;12.63;;
41921;SDS011;27609;51.002;5.354;2024-01-06T03:57:48;25.58;;;11.82;;
41921;SDS011;27609;51.002;5.354;2024-01-06T04:00:14;23.17;;;11.25;;
41921;SDS011;27609;51.002;5.354;2024-01-06T04:02:40;30.77;;;11.13;;
41921;SDS011;27609;51.002;5.354;2024-01-06T04:05:05;27.08;;;11.55;;
41921;SDS011;27609;51.002;5.354;2024-01-06T04:07:31;21.35;;;11.10;;
41921;SDS011;27609;51.002;5.354;2024-01-06T04:09:57;22.85;;;11.93;;
41921;SDS011;27609;51.002;5.354;2024-01-06T04:12:23;20.45;;;11.50;;
41921;SDS011;27609;51.002;5.354;2024-01-06T04:14:48;26.38;;;11.68;;
41921;SDS011;27609;51.002;5.354;2024-01-06T04:17:14;26.17;;;10.52;;
41921;SDS011;27609;51.002;5.354;2024-01-06T04:19:40;20.80;;;10.55;;
41921;SDS011;27609;51.002;5.354;2024-01-06T04:22:05;26.05;;;11.68;;
41921;SDS011;27609;51.002;5.354;2024-01-06T04:24:31;23.38;;;11.02;;
41921;SDS011;27609;51.002;5.354;2024-01-06T04:26:59;21.00;;;10.90;;
41921;SDS011;27609;51.002;5.354;2024-01-06T04:29:25;18.75;;;9.75;;
41921;SDS011;27609;51.002;5.354;2024-01-06T04:31:50;22.27;;;11.02;;
41921;SDS011;27609;51.002;5.354;2024-01-06T04:34:16;24.23;;;10.93;;
41921;SDS011;27609;51.002;5.354;2024-01-06T04:36:42;24.17;;;10.05;;
41921;SDS011;27609;51.002;5.354;2024-01-06T04:39:08;23.42;;;9.82;;
41921;SDS011;27609;51.002;5.354;2024-01-06T04:41:34;20.38;;;10.63;;
41921;SDS011;27609;51.002;5.354;2024-01-06T04:44:00;19.30;;;9.35;;
41921;SDS011;27609;51.002;5.354;2024-01-06T04:46:26;18.70;;;9.85;;
41921;SDS011;27609;51.002;5.354;2024-01-06T04:48:51;17.98;;;9.43;;
41921;SDS011;27609;51.002;5.354;2024-01-06T04:51:17;15.80;;;8.88;;
41921;SDS011;27609;51.002;5.354;2024-01-06T04:53:43;18.10;;;10.40;;
41921;SDS011;27609;51.002;5.354;2024-01-06T04:56:09;17.70;;;9.38;;
41921;SDS011;27609;51.002;5.354;2024-01-06T04:58:34;18.02;;;9.55;;
41921;SDS011;27609;51.002;5.354;2024-01-06T05:01:00;14.75;;;8.07;;
41921;SDS011;27609;51.002;5.354;2024-01-06T05:03:26;16.50;;;9.73;;
41921;SDS011;27609;51.002;5.354;2024-01-06T05:05:51;21.55;;;11.07;;
41921;SDS011;27609;51.002;5.354;2024-01-06T05:08:17;20.35;;;11.20;;
41921;SDS011;27609;51.002;5.354;2024-01-06T05:10:44;22.08;;;11.93;;
41921;SDS011;27609;51.002;5.354;2024-01-06T05:13:09;16.90;;;9.93;;
41921;SDS011;27609;51.002;5.354;2024-01-06T05:15:35;17.20;;;9.80;;
41921;SDS011;27609;51.002;5.354;2024-01-06T05:18:01;20.45;;;10.13;;
41921;SDS011;27609;51.002;5.354;2024-01-06T05:20:26;22.98;;;11.15;;
41921;SDS011;27609;51.002;5.354;2024-01-06T05:22:52;22.60;;;11.00;;
41921;SDS011;27609;51.002;5.354;2024-01-06T05:25:18;21.98;;;11.40;;
41921;SDS011;27609;51.002;5.354;2024-01-06T05:27:44;22.13;;;11.20;;
41921;SDS011;27609;51.002;5.354;2024-01-06T05:30:10;20.88;;;11.02;;
41921;SDS011;27609;51.002;5.354;2024-01-06T05:32:36;21.17;;;10.95;;
41921;SDS011;27609;51.002;5.354;2024-01-06T05:35:03;23.02;;;11.68;;
41921;SDS011;27609;51.002;5.354;2024-01-06T05:37:29;18.65;;;10.48;;
41921;SDS011;27609;51.002;5.354;2024-01-06T05:39:56;18.17;;;10.25;;
41921;SDS011;27609;51.002;5.354;2024-01-06T05:42:26;16.50;;;9.00;;
41921;SDS011;27609;51.002;5.354;2024-01-06T05:44:52;15.48;;;8.90;;
41921;SDS011;27609;51.002;5.354;2024-01-06T05:47:17;13.55;;;7.43;;
41921;SDS011;27609;51.002;5.354;2024-01-06T05:49:43;12.80;;;7.15;;
41921;SDS011;27609;51.002;5.354;2024-01-06T05:52:09;13.05;;;6.50;;
41921;SDS011;27609;51.002;5.354;2024-01-06T05:54:35;12.43;;;6.35;;
41921;SDS011;27609;51.002;5.354;2024-01-06T05:57:01;10.52;;;6.15;;
41921;SDS011;27609;51.002;5.354;2024-01-06T05:59:27;11.80;;;6.32;;
41921;SDS011;27609;51.002;5.354;2024-01-06T06:01:53;10.40;;;6.15;;
41921;SDS011;27609;51.002;5.354;2024-01-06T06:04:18;12.27;;;6.97;;
41921;SDS011;27609;51.002;5.354;2024-01-06T06:06:44;11.93;;;6.25;;
41921;SDS011;27609;51.002;5.354;2024-01-06T06:09:10;11.13;;;5.90;;
41921;SDS011;27609;51.002;5.354;2024-01-06T06:11:36;12.57;;;6.40;;
41921;SDS011;27609;51.002;5.354;2024-01-06T06:14:01;10.95;;;6.38;;
41921;SDS011;27609;51.002;5.354;2024-01-06T06:16:28;13.65;;;6.65;;
41921;SDS011;27609;51.002;5.354;2024-01-06T06:18:54;15.15;;;7.35;;
41921;SDS011;27609;51.002;5.354;2024-01-06T06:21:20;11.32;;;6.38;;
41921;SDS011;27609;51.002;5.354;2024-01-06T06:23:46;12.60;;;7.35;;
41921;SDS011;27609;51.002;5.354;2024-01-06T06:26:11;15.30;;;7.72;;
41921;SDS011;27609;51.002;5.354;2024-01-06T06:28:38;16.63;;;7.20;;
41921;SDS011;27609;51.002;5.354;2024-01-06T06:31:03;14.82;;;8.20;;
41921;SDS011;27609;51.002;5.354;2024-01-06T06:33:29;15.00;;;7.38;;
41921;SDS011;27609;51.002;5.354;2024-01-06T06:35:55;16.30;;;7.63;;
41921;SDS011;27609;51.002;5.354;2024-01-06T06:38:21;14.73;;;7.90;;
41921;SDS011;27609;51.002;5.354;2024-01-06T06:40:47;13.85;;;7.88;;
41921;SDS011;27609;51.002;5.354;2024-01-06T06:43:13;19.40;;;8.50;;
41921;SDS011;27609;51.002;5.354;2024-01-06T06:45:39;14.50;;;8.18;;
41921;SDS011;27609;51.002;5.354;2024-01-06T06:48:04;17.42;;;7.80;;
41921;SDS011;27609;51.002;5.354;2024-01-06T06:50:31;16.65;;;7.45;;
41921;SDS011;27609;51.002;5.354;2024-01-06T06:52:57;15.02;;;9.07;;
41921;SDS011;27609;51.002;5.354;2024-01-06T06:55:24;14.30;;;7.75;;
41921;SDS011;27609;51.002;5.354;2024-01-06T06:57:49;15.23;;;7.55;;
41921;SDS011;27609;51.002;5.354;2024-01-06T07:00:15;16.85;;;8.10;;
41921;SDS011;27609;51.002;5.354;2024-01-06T07:02:42;17.35;;;8.43;;
41921;SDS011;27609;51.002;5.354;2024-01-06T07:05:08;19.48;;;8.98;;
41921;SDS011;27609;51.002;5.354;2024-01-06T07:07:33;18.80;;;8.95;;
41921;SDS011;27609;51.002;5.354;2024-01-06T07:10:03;19.48;;;8.63;;
41921;SDS011;27609;51.002;5.354;2024-01-06T07:12:30;15.32;;;8.05;;
41921;SDS011;27609;51.002;5.354;2024-01-06T07:14:56;17.95;;;8.00;;
41921;SDS011;27609;51.002;5.354;2024-01-06T07:17:23;14.50;;;7.97;;
41921;SDS011;27609;51.002;5.354;2024-01-06T07:19:49;18.58;;;8.70;;
41921;SDS011;27609;51.002;5.354;2024-01-06T07:22:15;18.20;;;8.63;;
41921;SDS011;27609;51.002;5.354;2024-01-06T07:24:44;19.50;;;8.98;;
41921;SDS011;27609;51.002;5.354;2024-01-06T07:27:10;16.15;;;7.68;;
41921;SDS011;27609;51.002;5.354;2024-01-06T07:29:36;18.23;;;9.30;;
41921;SDS011;27609;51.002;5.354;2024-01-06T07:32:02;19.50;;;8.38;;
41921;SDS011;27609;51.002;5.354;2024-01-06T07:34:28;19.10;;;8.93;;
41921;SDS011;27609;51.002;5.354;2024-01-06T07:36:54;26.02;;;9.00;;
41921;SDS011;27609;51.002;5.354;2024-01-06T07:39:19;17.65;;;9.48;;
41921;SDS011;27609;51.002;5.354;2024-01-06T07:41:45;15.50;;;8.18;;
41921;SDS011;27609;51.002;5.354;2024-01-06T07:44:11;24.15;;;10.00;;
41921;SDS011;27609;51.002;5.354;2024-01-06T07:46:38;19.17;;;8.93;;
41921;SDS011;27609;51.002;5.354;2024-01-06T07:49:05;20.48;;;10.32;;
41921;SDS011;27609;51.002;5.354;2024-01-06T07:51:31;18.58;;;9.20;;
41921;SDS011;27609;51.002;5.354;2024-01-06T07:53:59;20.70;;;9.20;;
41921;SDS011;27609;51.002;5.354;2024-01-06T07:56:25;20.65;;;9.15;;
41921;SDS011;27609;51.002;5.354;2024-01-06T07:58:51;19.25;;;9.40;;
41921;SDS011;27609;51.002;5.354;2024-01-06T08:01:17;16.67;;;9.50;;
41921;SDS011;27609;51.002;5.354;2024-01-06T08:03:43;20.63;;;9.80;;
41921;SDS011;27609;51.002;5.354;2024-01-06T08:06:09;15.98;;;8.82;;
41921;SDS011;27609;51.002;5.354;2024-01-06T08:08:35;23.42;;;9.63;;
41921;SDS011;27609;51.002;5.354;2024-01-06T08:11:01;17.50;;;9.55;;
41921;SDS011;27609;51.002;5.354;2024-01-06T08:13:27;19.80;;;10.45;;
41921;SDS011;27609;51.002;5.354;2024-01-06T08:15:52;21.30;;;9.73;;
41921;SDS011;27609;51.002;5.354;2024-01-06T08:18:18;19.48;;;8.98;;
41921;SDS011;27609;51.002;5.354;2024-01-06T08:20:45;20.63;;;10.32;;
41921;SDS011;27609;51.002;5.354;2024-01-06T08:23:11;25.08;;;10.35;;
41921;SDS011;27609;51.002;5.354;2024-01-06T08:25:37;16.80;;;9.18;;
41921;SDS011;27609;51.002;5.354;2024-01-06T08:28:03;17.27;;;9.77;;
41921;SDS011;27609;51.002;5.354;2024-01-06T08:30:29;19.33;;;9.55;;
41921;SDS011;27609;51.002;5.354;2024-01-06T08:32:54;16.77;;;9.02;;
41921;SDS011;27609;51.002;5.354;2024-01-06T08:35:20;15.05;;;9.27;;
41921;SDS011;27609;51.002;5.354;2024-01-06T08:37:46;18.52;;;9.25;;
41921;SDS011;27609;51.002;5.354;2024-01-06T08:40:11;17.70;;;8.98;;
41921;SDS011;27609;51.002;5.354;2024-01-06T08:42:37;19.25;;;8.88;;
41921;SDS011;27609;51.002;5.354;2024-01-06T08:45:03;16.42;;;9.55;;
41921;SDS011;27609;51.002;5.354;2024-01-06T08:47:30;20.52;;;9.77;;
41921;SDS011;27609;51.002;5.354;2024-01-06T08:49:56;19.35;;;10.00;;
41921;SDS011;27609;51.002;5.354;2024-01-06T08:52:22;22.55;;;8.98;;
41921;SDS011;27609;51.002;5.354;2024-01-06T08:54:47;14.38;;;8.70;;
41921;SDS011;27609;51.002;5.354;2024-01-06T08:57:14;14.25;;;8.55;;
41921;SDS011;27609;51.002;5.354;2024-01-06T08:59:40;17.80;;;8.90;;
41921;SDS011;27609;51.002;5.354;2024-01-06T09:02:06;18.17;;;9.18;;
41921;SDS011;27609;51.002;5.354;2024-01-06T09:04:32;19.08;;;9.68;;
41921;SDS011;27609;51.002;5.354;2024-01-06T09:06:58;23.48;;;8.90;;
41921;SDS011;27609;51.002;5.354;2024-01-06T09:09:24;17.23;;;8.90;;
41921;SDS011;27609;51.002;5.354;2024-01-06T09:11:49;19.48;;;8.80;;
41921;SDS011;27609;51.002;5.354;2024-01-06T09:14:16;16.65;;;8.38;;
41921;SDS011;27609;51.002;5.354;2024-01-06T09:16:43;15.48;;;7.70;;
41921;SDS011;27609;51.002;5.354;2024-01-06T09:19:09;15.82;;;8.13;;
41921;SDS011;27609;51.002;5.354;2024-01-06T09:21:34;13.40;;;7.28;;
41921;SDS011;27609;51.002;5.354;2024-01-06T09:24:01;16.48;;;7.03;;
41921;SDS011;27609;51.002;5.354;2024-01-06T09:26:31;16.60;;;8.32;;
41921;SDS011;27609;51.002;5.354;2024-01-06T09:28:59;10.57;;;6.78;;
41921;SDS011;27609;51.002;5.354;2024-01-06T09:31:25;11.13;;;6.80;;
41921;SDS011;27609;51.002;5.354;2024-01-06T09:33:51;14.05;;;8.40;;
41921;SDS011;27609;51.002;5.354;2024-01-06T09:36:17;12.00;;;6.90;;
41921;SDS011;27609;51.002;5.354;2024-01-06T09:38:43;12.40;;;7.63;;
41921;SDS011;27609;51.002;5.354;2024-01-06T09:41:09;12.43;;;6.47;;
41921;SDS011;27609;51.002;5.354;2024-01-06T09:43:34;14.50;;;7.35;;
41921;SDS011;27609;51.002;5.354;2024-01-06T09:46:23;16.52;;;6.30;;
41921;SDS011;27609;51.002;5.354;2024-01-06T09:48:54;12.55;;;6.72;;
41921;SDS011;27609;51.002;5.354;2024-01-06T09:51:21;12.27;;;6.55;;
41921;SDS011;27609;51.002;5.354;2024-01-06T09:53:58;12.90;;;6.18;;
41921;SDS011;27609;51.002;5.354;2024-01-06T09:56:25;12.75;;;6.10;;
41921;SDS011;27609;51.002;5.354;2024-01-06T09:58:52;10.18;;;6.18;;
41921;SDS011;27609;51.002;5.354;2024-01-06T10:01:19;13.68;;;6.07;;
41921;SDS011;27609;51.002;5.354;2024-01-06T10:03:45;10.73;;;6.40;;
41921;SDS011;27609;51.002;5.354;2024-01-06T10:06:11;11.45;;;6.70;;
41921;SDS011;27609;51.002;5.354;2024-01-06T10:08:38;10.88;;;5.57;;
41921;SDS011;27609;51.002;5.354;2024-01-06T10:11:05;9.80;;;5.55;;
41921;SDS011;27609;51.002;5.354;2024-01-06T10:13:37;11.27;;;5.93;;
41921;SDS011;27609;51.002;5.354;2024-01-06T10:16:06;9.95;;;5.78;;
41921;SDS011;27609;51.002;5.354;2024-01-06T10:18:32;11.25;;;5.50;;
41921;SDS011;27609;51.002;5.354;2024-01-06T10:21:00;11.60;;;5.75;;
41921;SDS011;27609;51.002;5.354;2024-01-06T10:23:31;9.57;;;6.28;;
41921;SDS011;27609;51.002;5.354;2024-01-06T10:26:00;10.15;;;6.03;;
41921;SDS011;27609;51.002;5.354;2024-01-06T10:28:26;10.05;;;6.18;;
41921;SDS011;27609;51.002;5.354;2024-01-06T10:30:52;9.63;;;5.13;;
41921;SDS011;27609;51.002;5.354;2024-01-06T10:33:19;8.35;;;5.47;;
41921;SDS011;27609;51.002;5.354;2024-01-06T10:35:46;9.40;;;5.25;;
41921;SDS011;27609;51.002;5.354;2024-01-06T10:38:12;9.68;;;5.00;;
41921;SDS011;27609;51.002;5.354;2024-01-06T10:40:55;13.05;;;5.50;;
41921;SDS011;27609;51.002;5.354;2024-01-06T10:43:24;10.10;;;5.57;;
41921;SDS011;27609;51.002;5.354;2024-01-06T10:45:54;9.75;;;5.25;;
41921;SDS011;27609;51.002;5.354;2024-01-06T10:48:23;13.05;;;5.40;;
41921;SDS011;27609;51.002;5.354;2024-01-06T10:50:51;9.00;;;5.38;;
41921;SDS011;27609;51.002;5.354;2024-01-06T10:53:18;9.90;;;5.63;;
41921;SDS011;27609;51.002;5.354;2024-01-06T10:55:48;8.55;;;4.90;;
41921;SDS011;27609;51.002;5.354;2024-01-06T10:58:15;7.28;;;5.20;;
41921;SDS011;27609;51.002;5.354;2024-01-06T11:00:42;8.18;;;4.63;;
41921;SDS011;27609;51.002;5.354;2024-01-06T11:03:08;9.32;;;4.72;;
41921;SDS011;27609;51.002;5.354;2024-01-06T11:05:36;6.30;;;4.93;;
41921;SDS011;27609;51.002;5.354;2024-01-06T11:08:03;6.88;;;4.25;;
41921;SDS011;27609;51.002;5.354;2024-01-06T11:10:30;8.30;;;4.72;;
41921;SDS011;27609;51.002;5.354;2024-01-06T11:15:52;9.02;;;5.25;;
41921;SDS011;27609;51.002;5.354;2024-01-06T11:18:34;8.75;;;6.07;;
41921;SDS011;27609;51.002;5.354;2024-01-06T11:26:31;9.93;;;6.20;;
41921;SDS011;27609;51.002;5.354;2024-01-06T11:28:57;8.68;;;6.03;;
41921;SDS011;27609;51.002;5.354;2024-01-06T11:31:32;8.00;;;4.88;;
41921;SDS011;27609;51.002;5.354;2024-01-06T11:34:11;7.80;;;5.40;;
41921;SDS011;27609;51.002;5.354;2024-01-06T11:36:43;10.48;;;5.45;;
41921;SDS011;27609;51.002;5.354;2024-01-06T11:39:33;7.88;;;5.30;;
41921;SDS011;27609;51.002;5.354;2024-01-06T11:42:06;7.28;;;4.43;;
41921;SDS011;27609;51.002;5.354;2024-01-06T11:44:39;6.55;;;4.07;;
41921;SDS011;27609;51.002;5.354;2024-01-06T11:47:08;8.45;;;5.03;;
41921;SDS011;27609;51.002;5.354;2024-01-06T11:49:36;6.32;;;4.30;;
41921;SDS011;27609;51.002;5.354;2024-01-06T11:52:02;6.57;;;4.40;;
41921;SDS011;27609;51.002;5.354;2024-01-06T11:54:29;7.45;;;4.50;;
41921;SDS011;27609;51.002;5.354;2024-01-06T11:56:55;8.98;;;4.88;;
41921;SDS011;27609;51.002;5.354;2024-01-06T11:59:22;6.75;;;4.32;;
41921;SDS011;27609;51.002;5.354;2024-01-06T12:01:48;7.43;;;4.68;;
41921;SDS011;27609;51.002;5.354;2024-01-06T12:04:14;5.50;;;4.55;;
41921;SDS011;27609;51.002;5.354;2024-01-06T12:06:40;6.93;;;4.93;;
41921;SDS011;27609;51.002;5.354;2024-01-06T12:09:07;6.30;;;4.38;;
41921;SDS011;27609;51.002;5.354;2024-01-06T12:11:35;6.53;;;5.38;;
41921;SDS011;27609;51.002;5.354;2024-01-06T12:14:02;6.75;;;4.53;;
41921;SDS011;27609;51.002;5.354;2024-01-06T12:16:28;5.85;;;4.40;;
41921;SDS011;27609;51.002;5.354;2024-01-06T12:18:55;7.50;;;5.05;;
41921;SDS011;27609;51.002;5.354;2024-01-06T12:21:24;9.05;;;5.80;;
41921;SDS011;27609;51.002;5.354;2024-01-06T12:23:50;7.03;;;5.25;;
41921;SDS011;27609;51.002;5.354;2024-01-06T12:26:16;7.20;;;5.32;;
41921;SDS011;27609;51.002;5.354;2024-01-06T12:28:46;8.57;;;5.47;;
41921;SDS011;27609;51.002;5.354;2024-01-06T12:31:12;10.45;;;5.78;;
41921;SDS011;27609;51.002;5.354;2024-01-06T12:33:39;9.65;;;5.22;;
41921;SDS011;27609;51.002;5.354;2024-01-06T12:36:06;9.68;;;5.60;;
41921;SDS011;27609;51.002;5.354;2024-01-06T12:38:33;8.20;;;5.07;;
41921;SDS011;27609;51.002;5.354;2024-01-06T12:40:59;6.53;;;5.18;;
41921;SDS011;27609;51.002;5.354;2024-01-06T12:43:25;6.85;;;4.80;;
41921;SDS011;27609;51.002;5.354;2024-01-06T12:45:52;6.95;;;4.93;;
41921;SDS011;27609;51.002;5.354;2024-01-06T12:48:18;6.57;;;5.10;;
41921;SDS011;27609;51.002;5.354;2024-01-06T12:50:44;6.50;;;5.22;;
41921;SDS011;27609;51.002;5.354;2024-01-06T12:53:10;5.35;;;4.30;;
41921;SDS011;27609;51.002;5.354;2024-01-06T12:55:37;7.22;;;4.65;;
41921;SDS011;27609;51.002;5.354;2024-01-06T12:58:04;5.63;;;4.75;;
41921;SDS011;27609;51.002;5.354;2024-01-06T13:00:30;6.75;;;4.95;;
41921;SDS011;27609;51.002;5.354;2024-01-06T13:02:56;5.60;;;4.35;;
41921;SDS011;27609;51.002;5.354;2024-01-06T13:05:21;5.57;;;3.92;;
41921;SDS011;27609;51.002;5.354;2024-01-06T13:07:48;5.63;;;4.43;;
41921;SDS011;27609;51.002;5.354;2024-01-06T13:10:15;5.72;;;4.28;;
41921;SDS011;27609;51.002;5.354;2024-01-06T13:12:41;7.93;;;5.28;;
41921;SDS011;27609;51.002;5.354;2024-01-06T13:15:07;6.90;;;3.92;;
41921;SDS011;27609;51.002;5.354;2024-01-06T13:17:41;6.45;;;3.78;;
41921;SDS011;27609;51.002;5.354;2024-01-06T13:20:07;4.88;;;3.90;;
41921;SDS011;27609;51.002;5.354;2024-01-06T13:22:33;5.75;;;3.72;;
41921;SDS011;27609;51.002;5.354;2024-01-06T13:24:59;4.68;;;3.65;;
41921;SDS011;27609;51.002;5.354;2024-01-06T13:27:25;5.47;;;3.60;;
41921;SDS011;27609;51.002;5.354;2024-01-06T13:29:54;5.43;;;4.18;;
41921;SDS011;27609;51.002;5.354;2024-01-06T13:32:20;5.28;;;3.50;;
41921;SDS011;27609;51.002;5.354;2024-01-06T13:34:47;4.00;;;3.10;;
41921;SDS011;27609;51.002;5.354;2024-01-06T13:37:12;3.67;;;3.03;;
41921;SDS011;27609;51.002;5.354;2024-01-06T13:39:38;5.18;;;2.97;;
41921;SDS011;27609;51.002;5.354;2024-01-06T13:42:04;4.00;;;2.88;;
41921;SDS011;27609;51.002;5.354;2024-01-06T13:44:30;4.88;;;2.70;;
41921;SDS011;27609;51.002;5.354;2024-01-06T13:46:56;5.10;;;2.97;;
41921;SDS011;27609;51.002;5.354;2024-01-06T13:49:22;4.57;;;2.92;;
41921;SDS011;27609;51.002;5.354;2024-01-06T13:51:49;3.42;;;3.03;;
41921;SDS011;27609;51.002;5.354;2024-01-06T13:54:14;5.30;;;3.67;;
41921;SDS011;27609;51.002;5.354;2024-01-06T13:56:40;3.90;;;3.47;;
41921;SDS011;27609;51.002;5.354;2024-01-06T13:59:06;6.43;;;4.13;;
41921;SDS011;27609;51.002;5.354;2024-01-06T14:01:32;6.78;;;4.07;;
41921;SDS011;27609;51.002;5.354;2024-01-06T14:03:58;8.15;;;5.32;;
41921;SDS011;27609;51.002;5.354;2024-01-06T14:06:25;7.78;;;4.95;;
41921;SDS011;27609;51.002;5.354;2024-01-06T14:11:24;12.05;;;5.13;;
41921;SDS011;27609;51.002;5.354;2024-01-06T14:13:51;10.10;;;5.88;;
41921;SDS011;27609;51.002;5.354;2024-01-06T14:16:20;8.10;;;6.30;;
41921;SDS011;27609;51.002;5.354;2024-01-06T14:18:46;8.32;;;4.93;;
41921;SDS011;27609;51.002;5.354;2024-01-06T14:21:11;8.07;;;5.15;;
41921;SDS011;27609;51.002;5.354;2024-01-06T14:23:43;7.38;;;4.82;;
41921;SDS011;27609;51.002;5.354;2024-01-06T14:26:09;6.43;;;5.22;;
41921;SDS011;27609;51.002;5.354;2024-01-06T14:28:35;10.80;;;4.95;;
41921;SDS011;27609;51.002;5.354;2024-01-06T14:31:01;8.93;;;5.18;;
41921;SDS011;27609;51.002;5.354;2024-01-06T14:33:26;7.13;;;4.88;;
41921;SDS011;27609;51.002;5.354;2024-01-06T14:35:52;9.82;;;5.55;;
41921;SDS011;27609;51.002;5.354;2024-01-06T14:38:18;10.48;;;5.03;;
41921;SDS011;27609;51.002;5.354;2024-01-06T14:40:44;9.25;;;5.68;;
41921;SDS011;27609;51.002;5.354;2024-01-06T14:43:10;8.05;;;5.15;;